Alden, Minnesota
Current Conditions -  °F | °C
As of 1:13 PM on Friday 21 Nov 2014 (Local Time) from KAEL Reporting Station
Clear Clear  
Wind Chill: 11°   Ceiling: Unl
Heat Index: 25°   Visibility: 10mi
Dew Point: 18°   Wind: 17mph
Humidity: 74%   Direction: 170°S
Pressure: 30.09"   Gusts: 23mph
Location:  43.67°N, 93.58°W
Report Text: KAEL 211913Z AUTO 17015G20KT 10SM CLR M04/M08 A3009 RMK AO2
Loading
Personal Weather Stations






























Interactive Weather Map New forecast layout! Learn more

10-Day Weather Forecast

Advertisements
Track Severe Weather on mobile